الصفحة الرئيسية
METAR-TAF:

METAR-TAF

مطار :

فونافوتي, توفالو

دائرة عرض: 08-31S, خط طول: 179-13E, ارتفاع: 1 متر

مراقبة الطقس الحالي

تاريخ ووقت الإصدار 21 دقيقة قبل الساعة 00:00UTC
ريح 5 عقدة من الشرق/الجنوب الشرقي
درجة الحرارة 30°درجة مئوية
الرطوبة 75%
ضغط 1011 hPa
الرؤية 10 كم أو أكثر
غيوم قليلة على ارتفاع 1500 قدم, مزنة ركامية.
غيوم قليلة على ارتفاع 1700 قدم, مزن ركامية عمودية.
غيوم متفرقة على ارتفاع 30000 قدم
زخات في الجوار

METAR: NGFU 180000Z 12005KT 9999 VCSH FEW015CB FEW017TCU SCT300 30/25 Q1011 RMK CB TO SW

زمن: 12:21 (00:21 UTC)

توقعات

تاريخ ووقت الإصدار 55 دقيقة قبل الساعة 23:26UTC
التوقعات صالحة من18 الساعة 00 UTC إلى 18 الساعة 24 UTC
ريح 5 عقدة من الشرق
الرؤية 10 كم أو أكثر
غيوم قليلة على ارتفاع 2000 قدم
غيوم متفرقة على ارتفاع 10000 قدم
نظرية الاحتمالات 30% :
مؤقت
من 18 الساعة 00 UTC إلى 18 الساعة 06 UTC
الرؤية: 7000 متر
غيوم قليلة على ارتفاع 1500 قدم, مزنة ركامية.
عاصفة رعدية, مطر

TAF: NGFU 172326Z 1800/1824 10005KT 9999 FEW020 SCT100 PROB30 TEMPO 1800/1806 7000 TSRA FEW015CB

أرصاد الطقس والتوقعات من أكثر من 4000 مطار (تقارير الطقس للمطار METAR والتنبؤ بالطقس بالمطارTAF).

المحطات المتاحة هي النقط الصفراء والحمراء على الخريطة.

حرك المؤشر فوق النقطة لمعرفة اسم المحطة.

ثم انقر لمعرفة أرصاد وتوقعات الطقس.

لتغيير الخارطة: اضغط على الأزرار الخضراء مع رمز الصليب الأسود للتكبير. على الزر الأخضر مع شرطة للتصغير، أو على الأسهم الخضراء للخرائط المجاورة.


METAR-TAF: